createdAt,value
2023-01-13T00:00:20.613Z,9.30
2023-01-13T00:05:44.569Z,13.40
2023-01-13T00:10:51.437Z,12.30
2023-01-13T00:16:05.249Z,12.10
2023-01-13T00:21:15.609Z,11.90
2023-01-13T00:26:26.842Z,12.40
2023-01-13T00:31:31.522Z,15.10
2023-01-13T00:36:35.407Z,13.90
2023-01-13T00:41:57.978Z,12.60
2023-01-13T00:47:02.246Z,14.70
2023-01-13T00:52:06.345Z,10.60
2023-01-13T00:57:10.338Z,14.10
2023-01-13T01:02:14.182Z,12.10
2023-01-13T01:07:18.181Z,12.00
2023-01-13T01:12:21.937Z,13.30
2023-01-13T01:17:25.832Z,13.00
2023-01-13T01:22:29.610Z,15.00
2023-01-13T01:27:33.348Z,11.90
2023-01-13T01:32:36.938Z,12.90
2023-01-13T01:37:40.664Z,12.20
2023-01-13T01:43:02.727Z,19.70
2023-01-13T01:48:08.488Z,13.40
2023-01-13T01:53:21.772Z,13.50
2023-01-13T01:58:42.624Z,13.90
2023-01-13T02:03:58.278Z,11.80
2023-01-13T02:09:02.203Z,12.60
2023-01-13T02:14:06.093Z,11.40
2023-01-13T02:19:21.833Z,14.60
2023-01-13T02:25:10.615Z,13.70
2023-01-13T02:30:48.322Z,12.40
2023-01-13T02:36:13.050Z,16.80
2023-01-13T02:41:51.417Z,14.30
2023-01-13T02:47:20.608Z,13.10
2023-01-13T02:52:36.617Z,14.30
2023-01-13T02:57:43.360Z,12.50
2023-01-13T03:02:49.289Z,15.10
2023-01-13T03:08:04.420Z,17.80
2023-01-13T03:14:04.679Z,18.10
2023-01-13T03:19:49.040Z,8.90
2023-01-13T03:25:07.809Z,9.60
2023-01-13T03:30:29.871Z,8.30
2023-01-13T03:35:44.475Z,8.00
2023-01-13T03:41:01.677Z,9.80
2023-01-13T03:46:27.275Z,13.00
2023-01-13T03:51:34.386Z,12.30
2023-01-13T03:56:59.909Z,10.60
2023-01-13T04:02:20.077Z,5.90
2023-01-13T04:07:48.422Z,11.30
2023-01-13T04:13:08.344Z,11.70
2023-01-13T04:18:26.504Z,11.30
2023-01-13T04:23:30.314Z,13.90
2023-01-13T04:28:35.411Z,10.00
2023-01-13T04:33:39.091Z,14.90
2023-01-13T04:38:42.906Z,12.70
2023-01-13T04:43:46.481Z,11.50
2023-01-13T04:48:50.227Z,25.90
2023-01-13T04:53:53.866Z,22.00
2023-01-13T04:58:57.459Z,14.00
2023-01-13T05:04:01.175Z,17.20
2023-01-13T05:09:04.963Z,13.70
2023-01-13T05:14:27.801Z,17.40
2023-01-13T05:19:35.384Z,14.20
2023-01-13T05:24:57.736Z,16.30
2023-01-13T05:30:02.070Z,14.60
2023-01-13T05:35:05.961Z,16.40
2023-01-13T05:40:31.888Z,20.20
2023-01-13T05:45:35.629Z,21.00
2023-01-13T05:50:40.264Z,22.00
2023-01-13T05:55:45.797Z,22.50
2023-01-13T06:00:50.490Z,16.70
2023-01-13T06:05:59.128Z,17.30
2023-01-13T06:11:03.453Z,15.40
2023-01-13T06:16:07.671Z,20.50
2023-01-13T06:21:11.678Z,17.60
2023-01-13T06:26:22.448Z,14.10
2023-01-13T06:31:29.102Z,15.10
2023-01-13T06:36:56.537Z,17.10
2023-01-13T06:42:18.932Z,19.30
2023-01-13T06:47:22.830Z,15.80
2023-01-13T06:52:27.902Z,18.30
2023-01-13T06:57:31.441Z,15.00
2023-01-13T07:02:35.128Z,14.10
2023-01-13T07:07:40.306Z,12.80
2023-01-13T07:13:03.024Z,16.70
2023-01-13T07:18:07.192Z,37.80
2023-01-13T07:23:11.083Z,29.70
2023-01-13T07:28:15.060Z,24.90
2023-01-13T07:33:19.271Z,16.40
2023-01-13T07:38:23.071Z,21.40
2023-01-13T07:43:33.118Z,28.60
2023-01-13T07:48:37.188Z,20.10
2023-01-13T07:53:41.502Z,19.20
2023-01-13T07:58:50.637Z,23.10
2023-01-13T08:03:56.697Z,11.50
2023-01-13T08:09:00.284Z,31.40
2023-01-13T08:14:04.242Z,16.10
2023-01-13T08:19:08.150Z,19.30
2023-01-13T08:24:12.218Z,15.60
2023-01-13T08:29:15.867Z,16.20
2023-01-13T08:34:19.833Z,17.50
2023-01-13T08:39:25.957Z,16.00
2023-01-13T08:44:32.713Z,13.40
2023-01-13T08:49:36.428Z,20.90
2023-01-13T08:54:40.923Z,16.90
2023-01-13T08:59:45.334Z,17.40
2023-01-13T09:04:50.322Z,34.20
2023-01-13T09:09:54.189Z,22.80
2023-01-13T09:14:58.648Z,27.00
2023-01-13T09:20:02.505Z,44.80
2023-01-13T09:25:07.460Z,54.30
2023-01-13T09:30:11.958Z,38.10
2023-01-13T09:35:17.757Z,24.90
2023-01-13T09:40:23.077Z,26.40
2023-01-13T09:45:38.169Z,35.00
2023-01-13T09:51:17.976Z,24.20
2023-01-13T10:01:42.356Z,25.70
2023-01-13T10:06:58.198Z,32.00
2023-01-13T10:12:22.180Z,33.90
2023-01-13T10:17:44.656Z,19.00
2023-01-13T10:23:17.007Z,33.90
2023-01-13T10:28:24.217Z,30.80
2023-01-13T10:33:29.046Z,25.40
2023-01-13T10:38:35.985Z,20.90
2023-01-13T10:43:40.249Z,34.60
2023-01-13T10:48:58.900Z,22.90
2023-01-13T10:54:25.560Z,30.20
2023-01-13T10:59:30.200Z,13.20
2023-01-13T11:04:39.978Z,30.00
2023-01-13T11:09:43.841Z,29.30
2023-01-13T11:14:49.058Z,47.40
2023-01-13T11:20:14.273Z,26.20
2023-01-13T11:25:45.968Z,27.60
2023-01-13T11:31:19.872Z,24.80
2023-01-13T11:36:33.018Z,27.10
2023-01-13T11:41:47.297Z,51.80
2023-01-13T11:46:54.230Z,24.00
2023-01-13T11:52:50.165Z,28.10
2023-01-13T11:58:19.416Z,26.20
2023-01-13T12:03:38.883Z,21.90
2023-01-13T12:09:05.432Z,26.20
2023-01-13T12:14:49.367Z,41.20
2023-01-13T12:19:53.134Z,65.00
2023-01-13T12:25:21.535Z,30.40
2023-01-13T12:30:51.167Z,75.50
2023-01-13T12:36:21.636Z,52.50
2023-01-13T12:42:05.834Z,30.70
2023-01-13T12:47:39.362Z,37.40
2023-01-13T12:52:46.300Z,21.40
2023-01-13T12:58:03.265Z,30.10
2023-01-13T13:03:12.878Z,28.70
2023-01-13T13:08:38.119Z,41.70
2023-01-13T13:13:49.440Z,43.90
2023-01-13T13:19:20.384Z,39.60
2023-01-13T13:24:25.739Z,31.30
2023-01-13T13:29:53.751Z,43.10
2023-01-13T13:35:19.880Z,24.10
2023-01-13T13:40:43.445Z,43.90
2023-01-13T13:46:11.132Z,80.80
2023-01-13T13:51:46.725Z,60.70
2023-01-13T13:56:51.732Z,118.50
2023-01-13T14:02:04.100Z,45.70
2023-01-13T14:07:21.638Z,36.50
2023-01-13T14:12:28.032Z,41.00
2023-01-13T14:17:32.021Z,54.90
2023-01-13T14:22:37.699Z,76.10
2023-01-13T14:27:47.351Z,66.30
2023-01-13T14:32:58.118Z,29.50
2023-01-13T14:38:13.627Z,52.70
2023-01-13T14:43:24.995Z,54.00
2023-01-13T14:48:36.938Z,46.20
2023-01-13T14:53:47.645Z,39.30
2023-01-13T14:58:51.314Z,67.00
2023-01-13T15:03:55.985Z,38.80
2023-01-13T15:08:59.804Z,33.90
2023-01-13T15:14:11.817Z,34.10
2023-01-13T15:19:15.604Z,30.60
2023-01-13T15:24:19.290Z,45.50
2023-01-13T15:29:24.470Z,34.50
2023-01-13T15:34:28.425Z,37.10
2023-01-13T15:39:32.327Z,68.60
2023-01-13T15:44:54.745Z,47.70
2023-01-13T15:49:58.699Z,39.40
2023-01-13T15:55:02.407Z,37.90
2023-01-13T16:00:22.072Z,85.00
2023-01-13T16:05:26.582Z,58.30
2023-01-13T16:10:30.402Z,58.90
2023-01-13T16:15:34.229Z,45.80
2023-01-13T16:20:37.945Z,36.90
2023-01-13T16:25:45.243Z,50.90
2023-01-13T16:30:49.390Z,90.60
2023-01-13T16:36:10.934Z,82.90
2023-01-13T16:41:16.608Z,31.30
2023-01-13T16:46:26.388Z,34.30
2023-01-13T16:51:30.253Z,33.60
2023-01-13T16:56:37.313Z,39.30
2023-01-13T17:01:43.823Z,35.80
2023-01-13T17:07:07.118Z,42.00
2023-01-13T17:12:12.179Z,53.50
2023-01-13T17:17:28.878Z,31.90
2023-01-13T17:22:33.126Z,30.30
2023-01-13T17:27:37.275Z,35.50
2023-01-13T17:32:42.300Z,33.30
2023-01-13T17:37:46.415Z,28.10
2023-01-13T17:42:50.280Z,35.80
2023-01-13T17:48:00.417Z,24.90
2023-01-13T17:53:04.091Z,19.50
2023-01-13T17:58:08.969Z,27.60
2023-01-13T18:03:13.145Z,33.70
2023-01-13T18:08:17.620Z,33.00
2023-01-13T18:13:21.271Z,23.90
2023-01-13T18:18:24.965Z,42.70
2023-01-13T18:23:47.442Z,48.10
2023-01-13T18:28:51.280Z,23.20
2023-01-13T18:33:55.337Z,22.10
2023-01-13T18:38:59.080Z,38.20
2023-01-13T18:44:04.301Z,28.60
2023-01-13T18:49:08.234Z,34.60
2023-01-13T18:54:12.487Z,33.30
2023-01-13T18:59:18.124Z,35.40
2023-01-13T19:04:23.893Z,51.80
2023-01-13T19:09:31.802Z,31.40
2023-01-13T19:14:38.420Z,29.50
2023-01-13T19:19:49.428Z,27.20
2023-01-13T19:24:54.350Z,23.10
2023-01-13T19:30:01.889Z,37.30
2023-01-13T19:35:08.183Z,19.10
2023-01-13T19:40:16.172Z,23.10
2023-01-13T19:45:31.709Z,21.70
2023-01-13T19:50:40.276Z,24.30
2023-01-13T19:55:48.858Z,17.80
2023-01-13T20:00:54.837Z,29.20
2023-01-13T20:06:10.613Z,33.50
2023-01-13T20:11:33.709Z,24.80
2023-01-13T20:16:37.798Z,34.60
2023-01-13T20:21:43.830Z,22.30
2023-01-13T20:26:47.814Z,22.30
2023-01-13T20:31:51.929Z,25.40
2023-01-13T20:36:56.274Z,22.40
2023-01-13T20:42:18.782Z,27.90
2023-01-13T20:47:23.571Z,41.90
2023-01-13T20:52:29.155Z,30.50
2023-01-13T20:57:33.276Z,37.30
2023-01-13T21:02:38.976Z,29.10
2023-01-13T21:07:42.902Z,41.80
2023-01-13T21:13:05.818Z,30.30
2023-01-13T21:18:28.183Z,30.00
2023-01-13T21:23:32.097Z,24.00
2023-01-13T21:28:37.238Z,33.60
2023-01-13T21:33:41.109Z,29.80
2023-01-13T21:38:44.998Z,33.30
2023-01-13T21:44:07.656Z,34.30
2023-01-13T21:49:11.884Z,28.50
2023-01-13T21:54:15.614Z,27.80
2023-01-13T21:59:20.164Z,29.40
2023-01-13T22:04:23.902Z,26.10
2023-01-13T22:09:27.636Z,21.90
2023-01-13T22:14:31.501Z,29.20
2023-01-13T22:19:39.503Z,25.60
2023-01-13T22:24:44.313Z,17.50
2023-01-13T22:29:50.084Z,17.50
2023-01-13T22:34:53.847Z,19.60
2023-01-13T22:39:57.528Z,25.50
2023-01-13T22:45:01.367Z,17.50
2023-01-13T22:50:07.863Z,14.30
2023-01-13T22:55:11.725Z,14.20
2023-01-13T23:00:19.461Z,10.60
2023-01-13T23:05:23.522Z,12.20
2023-01-13T23:10:27.329Z,11.70
2023-01-13T23:15:31.436Z,11.90
2023-01-13T23:20:35.301Z,10.80
2023-01-13T23:25:39.090Z,9.70
2023-01-13T23:30:42.720Z,9.10
2023-01-13T23:36:19.389Z,10.50
2023-01-13T23:41:26.176Z,8.50
2023-01-13T23:46:33.499Z,5.80
2023-01-13T23:51:37.443Z,9.80
2023-01-13T23:56:41.348Z,8.40
